עמוד ראשי
METAR-TAF:

METAR-TAF

שדות תעופה :

Tokushima, יפן

קו רוחב: 34-08N, קו אורך: 134-37E, גובה: 8מטר

תצפית מזג אוויר נוכחית

הדו"ח נערך לפני 45דקות, בשעה 04:00 UTC
רוח 7קשר מכיוון דרום-מזרח
טמפרטורת 31 צלסיוס
לחות 75%
לחץ 1011 hPa
ראות 10 קילומטר או יותר
מעט עננים בגובה 3000רגל

METAR: RJOS 210400Z 13007KT 9999 FEW030 31/26 Q1011

זמן: 13:45 (04:45 UTC)


TAF: חסר

תצפיות ותחזיות מזג אוויר לגבי יותר מ- 4,000 שדות תעופה ברחבי העולם. דוחות METAR ו- TAF.

התחנות הזמינות מסומנות בנקודות צהובות ואדומות על גבי המפה.

העבר את העכבר לנקודה הצבעונית על מנת לראות את שם התחנה.

לאחר מכן, לחץ כדי לראות את תוכן ואת תחזיות מזג האוויר.

כדי לשנות את המפה: לחץ על הכפתורים הירוקים עם הפלוס השחור כדי להתקרב; על הכפתור הירוק עם המקף כדי להתרחק; או בחיצים הירוקים למפות סמוכות.


METAR-TAF: